Time,TemperatureF,DewpointF,PressureIn,WindDirection,WindDirectionDegrees,WindSpeedMPH,WindSpeedGustMPH,Humidity,HourlyPrecipIn,Conditions,Clouds,dailyrainin,SoftwareType,DateUTC
2013-01-29 00:00:00,33.8,33.3,29.75,West,264,3.1,3.1,98,0.00,,,0.00,VWS V14.00,2013-01-29 05:00:00,
2013-01-29 00:03:00,33.8,33.3,29.75,North,8,3.6,3.6,98,0.00,,,0.00,VWS V14.00,2013-01-29 05:03:00,
2013-01-29 00:04:00,33.8,33.3,29.75,SW,224,0.0,3.6,98,0.00,,,0.00,VWS V14.00,2013-01-29 05:04:00,
2013-01-29 00:07:00,33.8,33.3,29.75,North,353,2.7,2.7,98,0.00,,,0.00,VWS V14.00,2013-01-29 05:07:00,
2013-01-29 00:12:00,33.8,33.3,29.75,West,276,0.0,0.0,98,0.00,,,0.00,VWS V14.00,2013-01-29 05:12:00,
2013-01-29 00:17:00,33.8,33.3,29.75,SSW,208,5.8,5.8,98,0.00,,,0.00,VWS V14.00,2013-01-29 05:17:00,
2013-01-29 00:22:00,33.8,33.3,29.75,SW,221,0.0,0.0,98,0.00,,,0.00,VWS V14.00,2013-01-29 05:22:00,
2013-01-29 00:28:00,33.8,33.3,29.75,WNW,285,0.0,0.0,98,0.00,,,0.00,VWS V14.00,2013-01-29 05:28:00,
2013-01-29 00:33:00,33.8,33.3,29.75,WNW,283,0.0,2.7,98,0.00,,,0.00,VWS V14.00,2013-01-29 05:33:00,
2013-01-29 00:39:00,33.8,33.3,29.75,WNW,286,0.0,0.0,98,0.00,,,0.00,VWS V14.00,2013-01-29 05:39:00,
2013-01-29 00:44:00,33.8,33.3,29.75,WSW,251,0.0,0.0,98,0.00,,,0.00,VWS V14.00,2013-01-29 05:44:00,
2013-01-29 00:50:00,33.8,33.3,29.75,NW,306,0.0,0.0,98,0.00,,,0.00,VWS V14.00,2013-01-29 05:50:00,
2013-01-29 00:55:00,33.8,33.3,29.75,NW,305,0.0,0.0,98,0.00,,,0.00,VWS V14.00,2013-01-29 05:55:00,
2013-01-29 01:00:00,34.0,33.5,29.75,SW,225,0.0,0.0,98,0.00,,,0.00,VWS V14.00,2013-01-29 06:00:00,
2013-01-29 01:06:00,34.0,33.5,29.75,NW,314,0.0,0.0,98,0.00,,,0.00,VWS V14.00,2013-01-29 06:06:00,
2013-01-29 01:11:00,34.0,33.5,29.69,NW,310,0.0,0.0,98,0.00,,,0.00,VWS V14.00,2013-01-29 06:11:00,
2013-01-29 01:16:00,34.0,33.5,29.69,West,276,0.0,3.6,98,0.00,,,0.00,VWS V14.00,2013-01-29 06:16:00,
2013-01-29 01:21:00,34.0,33.5,29.69,WSW,248,0.0,0.0,98,0.00,,,0.00,VWS V14.00,2013-01-29 06:21:00,
2013-01-29 01:26:00,34.0,33.5,29.69,NE,42,2.2,2.2,98,0.00,,,0.00,VWS V14.00,2013-01-29 06:26:00,
2013-01-29 01:32:00,34.2,33.7,29.69,NNW,340,0.0,3.1,98,0.00,,,0.00,VWS V14.00,2013-01-29 06:32:00,
2013-01-29 01:38:00,34.2,33.7,29.69,NW,310,0.0,2.2,98,0.00,,,0.00,VWS V14.00,2013-01-29 06:38:00,
2013-01-29 01:43:00,34.3,33.8,29.69,NW,311,0.0,2.7,98,0.00,,,0.00,VWS V14.00,2013-01-29 06:43:00,
2013-01-29 01:49:00,34.3,33.8,29.69,WNW,292,2.2,2.7,98,0.00,,,0.00,VWS V14.00,2013-01-29 06:49:00,
2013-01-29 01:55:00,34.3,33.8,29.69,West,275,0.0,0.0,98,0.00,,,0.00,VWS V14.00,2013-01-29 06:55:00,
2013-01-29 02:01:00,34.3,33.8,29.69,WSW,255,0.0,0.0,98,0.00,,,0.00,VWS V14.00,2013-01-29 07:01:00,
2013-01-29 02:06:00,34.3,33.8,29.69,West,259,2.7,2.7,98,0.00,,,0.00,VWS V14.00,2013-01-29 07:06:00,
2013-01-29 02:11:00,34.3,33.8,29.69,WNW,297,0.0,2.2,98,0.00,,,0.00,VWS V14.00,2013-01-29 07:11:00,
2013-01-29 02:17:00,34.5,34.0,29.69,WNW,297,0.0,0.0,98,0.00,,,0.00,VWS V14.00,2013-01-29 07:17:00,
2013-01-29 02:22:00,34.5,34.0,29.66,North,0,0.0,3.1,98,0.00,,,0.00,VWS V14.00,2013-01-29 07:22:00,
2013-01-29 02:28:00,34.5,34.0,29.66,NW,324,0.0,2.2,98,0.00,,,0.00,VWS V14.00,2013-01-29 07:28:00,
2013-01-29 02:33:00,34.5,34.0,29.66,West,260,2.7,2.7,98,0.00,,,0.00,VWS V14.00,2013-01-29 07:33:00,
2013-01-29 02:38:00,34.5,34.0,29.66,WSW,255,0.0,3.1,98,0.00,,,0.00,VWS V14.00,2013-01-29 07:38:00,
2013-01-29 02:43:00,34.5,34.0,29.66,NW,320,3.6,3.6,98,0.00,,,0.00,VWS V14.00,2013-01-29 07:43:00,
2013-01-29 02:49:00,34.7,34.2,29.63,West,262,0.0,0.0,98,0.00,,,0.00,VWS V14.00,2013-01-29 07:49:00,
2013-01-29 02:55:00,34.7,34.2,29.63,WNW,293,4.0,4.0,98,0.00,,,0.00,VWS V14.00,2013-01-29 07:55:00,
2013-01-29 03:00:00,34.7,34.2,29.63,NNW,327,0.0,3.6,98,0.00,,,0.00,VWS V14.00,2013-01-29 08:00:00,
2013-01-29 03:06:00,34.9,34.4,29.63,NW,313,0.0,0.0,98,0.00,,,0.00,VWS V14.00,2013-01-29 08:06:00,
2013-01-29 03:11:00,34.9,34.4,29.63,SW,224,0.0,0.0,98,0.00,,,0.00,VWS V14.00,2013-01-29 08:11:00,
2013-01-29 03:17:00,34.9,34.4,29.63,West,265,0.0,0.0,98,0.00,,,0.00,VWS V14.00,2013-01-29 08:17:00,
2013-01-29 03:22:00,34.9,34.4,29.63,WNW,288,0.0,2.7,98,0.00,,,0.00,VWS V14.00,2013-01-29 08:22:00,
2013-01-29 03:27:00,34.9,34.4,29.60,WNW,297,0.0,2.2,98,0.08,,,0.08,VWS V14.00,2013-01-29 08:27:00,
2013-01-29 03:32:00,34.9,34.4,29.60,WSW,257,0.0,0.0,98,0.08,,,0.08,VWS V14.00,2013-01-29 08:32:00,
2013-01-29 03:38:00,35.1,34.5,29.60,WNW,294,0.0,0.0,98,0.08,,,0.08,VWS V14.00,2013-01-29 08:38:00,
2013-01-29 03:44:00,35.1,34.5,29.60,West,267,0.0,2.7,98,0.08,,,0.08,VWS V14.00,2013-01-29 08:44:00,
2013-01-29 03:49:00,35.2,34.7,29.60,West,265,0.0,0.0,98,0.08,,,0.08,VWS V14.00,2013-01-29 08:49:00,
2013-01-29 03:55:00,35.2,34.7,29.60,West,265,2.7,3.1,98,0.12,,,0.12,VWS V14.00,2013-01-29 08:55:00,
2013-01-29 04:00:00,35.4,34.9,29.60,NW,312,2.7,3.1,98,0.16,,,0.16,VWS V14.00,2013-01-29 09:00:00,
2013-01-29 04:05:00,35.4,34.9,29.60,NW,308,0.0,0.0,98,0.20,,,0.20,VWS V14.00,2013-01-29 09:05:00,
2013-01-29 04:10:00,35.6,35.1,29.60,NNW,341,2.7,3.1,98,0.20,,,0.20,VWS V14.00,2013-01-29 09:10:00,
2013-01-29 04:16:00,35.6,35.1,29.60,ENE,61,4.0,4.0,98,0.20,,,0.20,VWS V14.00,2013-01-29 09:16:00,
2013-01-29 04:21:00,35.6,35.1,29.60,WNW,288,3.1,3.1,98,0.20,,,0.20,VWS V14.00,2013-01-29 09:21:00,
2013-01-29 04:27:00,35.6,35.1,29.60,WNW,297,3.1,4.9,98,0.12,,,0.20,VWS V14.00,2013-01-29 09:27:00,
2013-01-29 04:32:00,35.8,35.3,29.60,NW,318,2.7,3.1,98,0.12,,,0.20,VWS V14.00,2013-01-29 09:32:00,
2013-01-29 04:37:00,36.0,35.5,29.54,NW,309,2.7,2.7,98,0.12,,,0.20,VWS V14.00,2013-01-29 09:37:00,
2013-01-29 04:42:00,36.3,35.8,29.54,West,275,0.0,0.0,98,0.12,,,0.20,VWS V14.00,2013-01-29 09:42:00,
2013-01-29 04:48:00,36.5,36.0,29.54,West,277,0.0,0.0,98,0.12,,,0.20,VWS V14.00,2013-01-29 09:48:00,
2013-01-29 04:53:00,36.9,36.3,29.54,NE,50,3.1,3.1,98,0.20,,,0.31,VWS V14.00,2013-01-29 09:53:00,
2013-01-29 04:58:00,36.9,36.3,29.54,NNW,345,2.2,3.6,98,0.20,,,0.31,VWS V14.00,2013-01-29 09:58:00,
2013-01-29 05:04:00,36.9,36.3,29.51,SE,128,0.0,2.2,98,0.16,,,0.31,VWS V14.00,2013-01-29 10:04:00,
2013-01-29 05:09:00,36.9,36.3,29.51,SW,235,0.0,0.0,98,0.12,,,0.31,VWS V14.00,2013-01-29 10:09:00,
2013-01-29 05:15:00,36.9,36.3,29.51,North,8,2.2,2.7,98,0.12,,,0.31,VWS V14.00,2013-01-29 10:15:00,
2013-01-29 05:20:00,36.9,36.3,29.54,North,357,3.6,3.6,98,0.12,,,0.31,VWS V14.00,2013-01-29 10:20:00,
2013-01-29 05:26:00,36.9,36.3,29.54,North,0,0.0,0.0,98,0.16,,,0.35,VWS V14.00,2013-01-29 10:26:00,
2013-01-29 05:32:00,37.0,36.5,29.54,WNW,298,0.0,0.0,98,0.16,,,0.35,VWS V14.00,2013-01-29 10:32:00,
2013-01-29 05:37:00,37.0,36.5,29.54,WNW,290,0.0,0.0,98,0.16,,,0.35,VWS V14.00,2013-01-29 10:37:00,
2013-01-29 05:43:00,37.4,36.9,29.54,SW,234,0.0,0.0,98,0.16,,,0.35,VWS V14.00,2013-01-29 10:43:00,
2013-01-29 05:48:00,37.6,37.1,29.54,SE,136,0.0,0.0,98,0.16,,,0.35,VWS V14.00,2013-01-29 10:48:00,
2013-01-29 05:54:00,37.8,37.2,29.54,WNW,286,0.0,0.0,98,0.04,,,0.35,VWS V14.00,2013-01-29 10:54:00,
2013-01-29 05:59:00,37.9,37.4,29.54,WNW,286,2.7,3.6,98,0.04,,,0.35,VWS V14.00,2013-01-29 10:59:00,
2013-01-29 06:04:00,38.1,37.6,29.54,WNW,290,0.0,0.0,98,0.04,,,0.35,VWS V14.00,2013-01-29 11:04:00,
2013-01-29 06:09:00,38.5,38.0,29.51,West,273,0.0,0.0,98,0.04,,,0.35,VWS V14.00,2013-01-29 11:09:00,
2013-01-29 06:14:00,38.8,38.3,29.51,NW,311,0.0,0.0,98,0.04,,,0.35,VWS V14.00,2013-01-29 11:14:00,
2013-01-29 06:20:00,38.8,38.3,29.51,NNW,340,0.0,0.0,98,0.04,,,0.35,VWS V14.00,2013-01-29 11:20:00,
2013-01-29 06:25:00,38.8,38.3,29.51,NNE,31,2.7,2.7,98,0.35,,,0.71,VWS V14.00,2013-01-29 11:25:00,
2013-01-29 06:30:00,38.8,38.3,29.51,NNE,31,0.0,0.0,98,0.35,,,0.71,VWS V14.00,2013-01-29 11:30:00,
2013-01-29 06:35:00,38.8,38.3,29.51,NNE,31,0.0,0.0,98,0.35,,,0.71,VWS V14.00,2013-01-29 11:35:00,
2013-01-29 06:40:00,38.8,38.3,29.51,NNE,33,0.0,0.0,98,0.35,,,0.71,VWS V14.00,2013-01-29 11:40:00,
2013-01-29 06:46:00,38.7,38.2,29.51,NNE,27,0.0,0.0,98,0.35,,,0.71,VWS V14.00,2013-01-29 11:46:00,
2013-01-29 06:51:00,38.7,38.2,29.51,NNE,27,0.0,0.0,98,0.35,,,0.71,VWS V14.00,2013-01-29 11:51:00,
2013-01-29 06:56:00,38.8,38.3,29.51,North,350,0.0,0.0,98,0.35,,,0.71,VWS V14.00,2013-01-29 11:56:00,
2013-01-29 07:01:00,39.0,38.5,29.51,WNW,297,2.2,3.1,98,0.35,,,0.71,VWS V14.00,2013-01-29 12:01:00,
2013-01-29 07:07:00,39.2,38.7,29.51,NNW,327,0.0,0.0,98,0.35,,,0.71,VWS V14.00,2013-01-29 12:07:00,
2013-01-29 07:12:00,39.4,38.9,29.51,WNW,300,0.0,0.0,98,0.35,,,0.71,VWS V14.00,2013-01-29 12:12:00,
2013-01-29 07:18:00,39.6,39.0,29.48,West,274,0.0,0.0,98,0.35,,,0.71,VWS V14.00,2013-01-29 12:18:00,
2013-01-29 07:24:00,39.4,38.9,29.48,West,275,0.0,0.0,98,0.00,,,0.71,VWS V14.00,2013-01-29 12:24:00,
2013-01-29 07:29:00,39.4,38.9,29.48,West,275,0.0,2.2,98,0.00,,,0.71,VWS V14.00,2013-01-29 12:29:00,
2013-01-29 07:34:00,39.6,39.0,29.48,West,275,0.0,0.0,98,0.00,,,0.71,VWS V14.00,2013-01-29 12:34:00,
2013-01-29 07:39:00,39.7,39.2,29.48,West,275,0.0,0.0,98,0.00,,,0.71,VWS V14.00,2013-01-29 12:39:00,
2013-01-29 07:44:00,39.7,39.2,29.48,West,275,0.0,0.0,98,0.00,,,0.71,VWS V14.00,2013-01-29 12:44:00,
2013-01-29 07:50:00,39.7,39.2,29.48,West,275,0.0,0.0,98,0.00,,,0.71,VWS V14.00,2013-01-29 12:50:00,
2013-01-29 07:56:00,39.7,39.2,29.48,West,275,0.0,0.0,98,0.00,,,0.71,VWS V14.00,2013-01-29 12:56:00,
2013-01-29 08:01:00,39.9,39.4,29.48,West,275,0.0,0.0,98,0.00,,,0.71,VWS V14.00,2013-01-29 13:01:00,
2013-01-29 08:07:00,39.9,39.4,29.48,West,275,0.0,0.0,98,0.00,,,0.71,VWS V14.00,2013-01-29 13:07:00,
2013-01-29 08:12:00,40.3,39.8,29.48,West,275,0.0,0.0,98,0.00,,,0.71,VWS V14.00,2013-01-29 13:12:00,
2013-01-29 08:18:00,40.3,39.8,29.48,West,275,0.0,0.0,98,0.00,,,0.71,VWS V14.00,2013-01-29 13:18:00,
2013-01-29 08:23:00,40.5,39.9,29.48,West,275,0.0,0.0,98,0.00,,,0.71,VWS V14.00,2013-01-29 13:23:00,
2013-01-29 08:29:00,40.5,39.9,29.48,West,275,0.0,0.0,98,0.00,,,0.71,VWS V14.00,2013-01-29 13:29:00,
2013-01-29 08:35:00,40.5,39.9,29.48,West,275,0.0,0.0,98,0.00,,,0.71,VWS V14.00,2013-01-29 13:35:00,
2013-01-29 08:41:00,40.3,39.8,29.48,West,275,0.0,0.0,98,0.00,,,0.71,VWS V14.00,2013-01-29 13:41:00,
2013-01-29 08:46:00,40.5,39.9,29.48,West,275,0.0,0.0,98,0.00,,,0.71,VWS V14.00,2013-01-29 13:46:00,
2013-01-29 08:51:00,40.5,39.9,29.48,West,275,0.0,0.0,98,0.00,,,0.71,VWS V14.00,2013-01-29 13:51:00,
2013-01-29 08:56:00,40.5,39.9,29.48,West,275,0.0,0.0,98,0.00,,,0.71,VWS V14.00,2013-01-29 13:56:00,
2013-01-29 09:01:00,40.5,39.9,29.48,West,275,0.0,0.0,98,0.00,,,0.71,VWS V14.00,2013-01-29 14:01:00,
2013-01-29 09:07:00,40.5,39.9,29.48,West,275,0.0,0.0,98,0.00,,,0.71,VWS V14.00,2013-01-29 14:07:00,
2013-01-29 09:13:00,40.6,40.1,29.48,West,275,0.0,0.0,98,0.00,,,0.71,VWS V14.00,2013-01-29 14:13:00,
2013-01-29 09:18:00,40.6,40.1,29.48,West,275,0.0,0.0,98,0.00,,,0.71,VWS V14.00,2013-01-29 14:18:00,
2013-01-29 09:23:00,40.6,40.1,29.48,West,275,0.0,0.0,98,0.00,,,0.71,VWS V14.00,2013-01-29 14:23:00,
2013-01-29 09:28:00,40.6,40.1,29.48,West,275,0.0,0.0,98,0.00,,,0.71,VWS V14.00,2013-01-29 14:28:00,
2013-01-29 09:33:00,40.6,40.1,29.48,West,275,0.0,0.0,98,0.00,,,0.71,VWS V14.00,2013-01-29 14:33:00,
2013-01-29 09:39:00,40.6,40.1,29.48,West,275,0.0,0.0,98,0.00,,,0.71,VWS V14.00,2013-01-29 14:39:00,
2013-01-29 09:44:00,40.6,40.1,29.48,West,275,0.0,0.0,98,0.00,,,0.71,VWS V14.00,2013-01-29 14:44:00,
2013-01-29 09:50:00,40.6,40.1,29.48,West,275,0.0,0.0,98,0.04,,,0.75,VWS V14.00,2013-01-29 14:50:00,
2013-01-29 09:55:00,40.8,40.3,29.48,West,275,0.0,0.0,98,0.04,,,0.75,VWS V14.00,2013-01-29 14:55:00,
2013-01-29 10:00:00,41.7,41.2,29.48,SW,226,4.9,5.4,98,0.16,,,0.87,VWS V14.00,2013-01-29 15:00:00,
2013-01-29 10:06:00,44.8,44.2,29.48,SSW,193,4.9,4.9,98,0.16,,,0.87,VWS V14.00,2013-01-29 15:06:00,
2013-01-29 10:12:00,46.9,46.4,29.48,SSW,209,2.7,3.1,98,0.16,,,0.87,VWS V14.00,2013-01-29 15:12:00,
2013-01-29 10:17:00,46.9,46.4,29.48,South,190,5.8,7.6,98,0.16,,,0.87,VWS V14.00,2013-01-29 15:17:00,
2013-01-29 10:22:00,46.9,46.4,29.45,SSW,199,5.8,5.8,98,0.16,,,0.87,VWS V14.00,2013-01-29 15:22:00,
2013-01-29 10:27:00,49.8,49.3,29.45,SSW,202,5.4,8.7,98,0.16,,,0.87,VWS V14.00,2013-01-29 15:27:00,
2013-01-29 10:32:00,50.2,49.6,29.45,SSW,196,4.0,5.8,98,0.16,,,0.87,VWS V14.00,2013-01-29 15:32:00,
2013-01-29 10:38:00,50.4,49.8,29.45,SW,215,4.0,4.9,98,0.16,,,0.87,VWS V14.00,2013-01-29 15:38:00,
2013-01-29 10:43:00,50.7,50.2,29.45,SSW,192,5.4,5.4,98,0.16,,,0.87,VWS V14.00,2013-01-29 15:43:00,
2013-01-29 10:49:00,51.1,50.5,29.45,South,179,6.3,6.3,98,0.16,,,0.87,VWS V14.00,2013-01-29 15:49:00,
2013-01-29 10:55:00,51.4,50.9,29.48,SSW,204,2.7,2.7,98,0.12,,,0.87,VWS V14.00,2013-01-29 15:55:00,
2013-01-29 11:00:00,51.4,50.9,29.48,SSW,194,3.6,3.6,98,0.00,,,0.87,VWS V14.00,2013-01-29 16:00:00,
2013-01-29 11:05:00,51.6,51.1,29.48,SSW,195,4.9,5.4,98,0.00,,,0.87,VWS V14.00,2013-01-29 16:05:00,
2013-01-29 11:10:00,51.6,51.1,29.48,SSW,195,3.1,5.8,98,0.00,,,0.87,VWS V14.00,2013-01-29 16:10:00,
2013-01-29 11:15:00,51.8,51.3,29.45,SSW,210,5.8,5.8,98,0.00,,,0.87,VWS V14.00,2013-01-29 16:15:00,
2013-01-29 11:20:00,52.2,51.6,29.45,SSW,207,5.8,7.6,98,0.00,,,0.87,VWS V14.00,2013-01-29 16:20:00,
2013-01-29 11:25:00,52.2,51.6,29.45,South,178,8.1,8.1,98,0.00,,,0.87,VWS V14.00,2013-01-29 16:25:00,
2013-01-29 11:30:00,52.2,51.6,29.45,SSW,201,5.8,8.1,98,0.00,,,0.87,VWS V14.00,2013-01-29 16:30:00,
2013-01-29 11:36:00,52.5,52.0,29.45,SW,220,8.1,8.1,98,0.00,,,0.87,VWS V14.00,2013-01-29 16:36:00,
2013-01-29 11:42:00,52.7,52.2,29.45,SSW,193,7.6,7.6,98,0.00,,,0.87,VWS V14.00,2013-01-29 16:42:00,
2013-01-29 11:48:00,52.9,52.3,29.45,SSW,199,6.3,6.3,98,0.00,,,0.87,VWS V14.00,2013-01-29 16:48:00,
2013-01-29 11:53:00,52.7,52.2,29.45,SSW,198,7.2,7.2,98,0.00,,,0.87,VWS V14.00,2013-01-29 16:53:00,
2013-01-29 11:58:00,52.7,52.2,29.45,SSW,205,4.0,5.8,98,0.00,,,0.87,VWS V14.00,2013-01-29 16:58:00,
2013-01-29 12:03:00,52.9,52.3,29.45,SSW,202,7.6,8.1,98,0.00,,,0.87,VWS V14.00,2013-01-29 17:03:00,
2013-01-29 12:09:00,52.9,52.3,29.45,SSW,195,6.3,6.3,98,0.00,,,0.87,VWS V14.00,2013-01-29 17:09:00,
2013-01-29 12:14:00,52.7,52.2,29.45,SSW,205,4.0,6.7,98,0.00,,,0.87,VWS V14.00,2013-01-29 17:14:00,
2013-01-29 12:19:00,52.7,52.2,29.42,SW,222,4.9,4.9,98,0.00,,,0.87,VWS V14.00,2013-01-29 17:19:00,
2013-01-29 12:24:00,52.7,52.2,29.42,SW,218,5.4,5.4,98,0.00,,,0.87,VWS V14.00,2013-01-29 17:24:00,
2013-01-29 12:30:00,52.7,52.2,29.45,SW,218,5.8,5.8,98,0.00,,,0.87,VWS V14.00,2013-01-29 17:30:00,
2013-01-29 12:35:00,53.1,52.5,29.45,SSW,207,6.3,7.6,98,0.00,,,0.87,VWS V14.00,2013-01-29 17:35:00,
2013-01-29 12:41:00,53.2,52.7,29.45,SSW,199,6.3,6.3,98,0.00,,,0.87,VWS V14.00,2013-01-29 17:41:00,
2013-01-29 12:47:00,53.2,52.7,29.45,SSW,196,3.1,6.3,98,0.00,,,0.87,VWS V14.00,2013-01-29 17:47:00,
2013-01-29 12:52:00,53.2,52.7,29.45,SSW,196,5.8,8.3,98,0.00,,,0.87,VWS V14.00,2013-01-29 17:52:00,
2013-01-29 12:58:00,53.2,52.7,29.42,SSW,207,5.8,5.8,98,0.00,,,0.87,VWS V14.00,2013-01-29 17:58:00,
2013-01-29 13:03:00,53.4,52.9,29.42,South,190,6.3,6.3,98,0.00,,,0.87,VWS V14.00,2013-01-29 18:03:00,
2013-01-29 13:09:00,53.4,52.9,29.42,SSW,199,8.7,8.7,98,0.00,,,0.87,VWS V14.00,2013-01-29 18:09:00,
2013-01-29 13:14:00,53.6,53.0,29.42,SSE,167,5.8,5.8,98,0.00,,,0.87,VWS V14.00,2013-01-29 18:14:00,
2013-01-29 13:19:00,53.8,53.2,29.42,SSW,201,3.6,10.5,98,0.00,,,0.87,VWS V14.00,2013-01-29 18:19:00,
2013-01-29 13:24:00,54.1,53.6,29.42,SSW,198,6.3,6.3,98,0.00,,,0.87,VWS V14.00,2013-01-29 18:24:00,
2013-01-29 13:29:00,54.1,53.6,29.42,South,174,6.3,6.3,98,0.00,,,0.87,VWS V14.00,2013-01-29 18:29:00,
2013-01-29 13:34:00,54.3,53.8,29.39,SSW,209,6.3,6.3,98,0.00,,,0.87,VWS V14.00,2013-01-29 18:34:00,
2013-01-29 13:40:00,54.3,53.8,29.39,SSW,198,8.1,8.3,98,0.00,,,0.87,VWS V14.00,2013-01-29 18:40:00,
2013-01-29 13:45:00,54.3,53.8,29.39,SSW,193,5.8,6.3,98,0.00,,,0.87,VWS V14.00,2013-01-29 18:45:00,
2013-01-29 13:50:00,54.3,53.8,29.39,SSW,208,7.6,7.6,98,0.00,,,0.87,VWS V14.00,2013-01-29 18:50:00,
2013-01-29 13:56:00,54.3,53.8,29.39,SSW,197,4.0,7.6,98,0.00,,,0.87,VWS V14.00,2013-01-29 18:56:00,
2013-01-29 14:01:00,54.3,53.8,29.39,South,186,7.6,7.6,98,0.00,,,0.87,VWS V14.00,2013-01-29 19:01:00,
2013-01-29 14:06:00,54.1,53.6,29.39,SSW,205,3.6,8.1,98,0.00,,,0.87,VWS V14.00,2013-01-29 19:06:00,
2013-01-29 14:12:00,54.1,53.6,29.39,SSW,192,5.4,5.4,98,0.00,,,0.87,VWS V14.00,2013-01-29 19:12:00,
2013-01-29 14:18:00,54.1,53.6,29.39,SSW,195,8.7,8.7,98,0.00,,,0.87,VWS V14.00,2013-01-29 19:18:00,
2013-01-29 14:23:00,54.1,53.6,29.39,South,190,7.6,7.6,98,0.00,,,0.87,VWS V14.00,2013-01-29 19:23:00,
2013-01-29 14:29:00,54.1,53.6,29.39,South,187,5.4,5.4,98,0.00,,,0.87,VWS V14.00,2013-01-29 19:29:00,
2013-01-29 14:35:00,54.1,53.6,29.39,SSW,197,5.8,5.8,98,0.00,,,0.87,VWS V14.00,2013-01-29 19:35:00,
2013-01-29 14:40:00,54.1,53.6,29.39,SSW,202,4.0,5.8,98,0.00,,,0.87,VWS V14.00,2013-01-29 19:40:00,
2013-01-29 14:45:00,54.1,53.6,29.39,SSW,195,5.4,5.4,98,0.00,,,0.87,VWS V14.00,2013-01-29 19:45:00,
2013-01-29 14:51:00,54.3,53.8,29.39,SSW,194,5.8,5.8,98,0.00,,,0.87,VWS V14.00,2013-01-29 19:51:00,
2013-01-29 14:57:00,54.5,54.0,29.39,SSW,211,5.4,6.3,98,0.00,,,0.87,VWS V14.00,2013-01-29 19:57:00,
2013-01-29 15:03:00,54.5,54.0,29.39,SSW,192,4.0,4.0,98,0.00,,,0.87,VWS V14.00,2013-01-29 20:03:00,
2013-01-29 15:08:00,54.5,54.0,29.39,SSW,203,3.1,3.1,98,0.00,,,0.87,VWS V14.00,2013-01-29 20:08:00,
2013-01-29 15:10:00,54.5,54.0,29.36,SSW,197,2.2,3.1,98,0.00,,,0.87,VWS V14.00,2013-01-29 20:10:00,
2013-01-29 15:15:00,54.5,54.0,29.36,South,191,2.7,2.7,98,0.00,,,0.87,VWS V14.00,2013-01-29 20:15:00,
2013-01-29 15:20:00,54.5,54.0,29.36,South,191,2.7,4.0,98,0.00,,,0.87,VWS V14.00,2013-01-29 20:20:00,
2013-01-29 15:25:00,54.5,54.0,29.36,SSW,204,6.3,6.3,98,0.00,,,0.87,VWS V14.00,2013-01-29 20:25:00,
2013-01-29 15:30:00,54.5,54.0,29.36,SSW,196,3.1,3.1,98,0.00,,,0.87,VWS V14.00,2013-01-29 20:30:00,
2013-01-29 15:35:00,54.5,54.0,29.36,SSW,195,2.2,3.6,98,0.00,,,0.87,VWS V14.00,2013-01-29 20:35:00,
2013-01-29 15:41:00,54.5,54.0,29.36,SSW,205,2.2,2.2,98,0.00,,,0.87,VWS V14.00,2013-01-29 20:41:00,
2013-01-29 15:46:00,54.5,54.0,29.36,SSE,147,0.0,2.2,98,0.00,,,0.87,VWS V14.00,2013-01-29 20:46:00,
2013-01-29 15:52:00,54.3,53.8,29.36,SSW,205,0.0,0.0,98,0.00,,,0.87,VWS V14.00,2013-01-29 20:52:00,
2013-01-29 15:57:00,54.3,53.8,29.36,SW,224,3.1,3.1,98,0.00,,,0.87,VWS V14.00,2013-01-29 20:57:00,
2013-01-29 16:03:00,54.3,53.8,29.36,South,191,3.1,3.1,98,0.00,,,0.87,VWS V14.00,2013-01-29 21:03:00,
2013-01-29 16:09:00,54.3,53.8,29.36,SSW,192,2.7,2.7,98,0.00,,,0.87,VWS V14.00,2013-01-29 21:09:00,
2013-01-29 16:14:00,54.3,53.8,29.36,SE,142,0.0,0.0,98,0.00,,,0.87,VWS V14.00,2013-01-29 21:14:00,
2013-01-29 16:20:00,54.3,53.8,29.36,South,173,2.7,2.7,98,0.00,,,0.87,VWS V14.00,2013-01-29 21:20:00,
2013-01-29 16:25:00,54.3,53.8,29.36,SSE,165,3.1,3.6,98,0.00,,,0.87,VWS V14.00,2013-01-29 21:25:00,
2013-01-29 16:32:00,54.1,53.6,29.36,SSW,205,4.9,4.9,98,0.00,,,0.87,VWS V14.00,2013-01-29 21:32:00,
2013-01-29 16:38:00,54.1,53.6,29.36,SSW,199,3.1,3.1,98,0.00,,,0.87,VWS V14.00,2013-01-29 21:38:00,
2013-01-29 16:43:00,54.1,53.6,29.36,SSW,203,4.5,4.5,98,0.00,,,0.87,VWS V14.00,2013-01-29 21:43:00,
2013-01-29 16:49:00,54.1,53.6,29.36,South,177,0.0,6.3,98,0.00,,,0.87,VWS V14.00,2013-01-29 21:49:00,
2013-01-29 16:54:00,54.1,53.6,29.36,SSW,198,3.1,3.6,98,0.00,,,0.87,VWS V14.00,2013-01-29 21:54:00,
2013-01-29 16:59:00,54.1,53.6,29.36,South,187,3.1,5.4,98,0.00,,,0.87,VWS V14.00,2013-01-29 21:59:00,
2013-01-29 17:04:00,54.3,53.8,29.36,SSW,195,4.0,5.4,98,0.00,,,0.87,VWS V14.00,2013-01-29 22:04:00,
2013-01-29 17:10:00,54.3,53.8,29.36,SSE,152,2.7,3.6,98,0.00,,,0.87,VWS V14.00,2013-01-29 22:10:00,
2013-01-29 17:15:00,54.3,53.8,29.36,SSW,202,5.8,5.8,98,0.00,,,0.87,VWS V14.00,2013-01-29 22:15:00,
2013-01-29 17:20:00,54.3,53.8,29.36,SSW,196,8.1,8.1,98,0.00,,,0.87,VWS V14.00,2013-01-29 22:20:00,
2013-01-29 17:26:00,54.3,53.8,29.36,South,179,4.9,4.9,98,0.00,,,0.87,VWS V14.00,2013-01-29 22:26:00,
2013-01-29 17:31:00,54.5,54.0,29.36,East,93,7.6,7.6,98,0.12,,,0.98,VWS V14.00,2013-01-29 22:31:00,
2013-01-29 17:37:00,54.5,54.0,29.36,SSW,202,5.8,5.8,98,0.12,,,0.98,VWS V14.00,2013-01-29 22:37:00,
2013-01-29 17:42:00,54.5,54.0,29.36,SSW,193,0.0,0.0,98,0.12,,,0.98,VWS V14.00,2013-01-29 22:42:00,
2013-01-29 17:48:00,54.5,54.0,29.36,SSW,194,3.1,6.3,98,0.12,,,0.98,VWS V14.00,2013-01-29 22:48:00,
2013-01-29 17:53:00,54.3,53.8,29.34,South,173,2.2,2.2,98,0.12,,,0.98,VWS V14.00,2013-01-29 22:53:00,
2013-01-29 17:59:00,54.3,53.8,29.34,SSE,168,2.2,3.6,98,0.12,,,0.98,VWS V14.00,2013-01-29 22:59:00,
2013-01-29 18:04:00,54.3,53.8,29.34,SSW,194,2.2,4.0,98,0.12,,,0.98,VWS V14.00,2013-01-29 23:04:00,
2013-01-29 18:09:00,54.3,53.8,29.36,South,170,2.2,2.2,98,0.12,,,0.98,VWS V14.00,2013-01-29 23:09:00,
2013-01-29 18:15:00,54.3,53.8,29.36,SSW,194,0.0,0.0,98,0.12,,,0.98,VWS V14.00,2013-01-29 23:15:00,
2013-01-29 18:20:00,54.3,53.8,29.36,South,175,2.7,4.0,98,0.12,,,0.98,VWS V14.00,2013-01-29 23:20:00,
2013-01-29 18:25:00,54.3,53.8,29.34,South,181,0.0,0.0,98,0.24,,,1.10,VWS V14.00,2013-01-29 23:25:00,
2013-01-29 18:30:00,54.3,53.8,29.34,SSE,159,0.0,2.2,98,0.12,,,1.10,VWS V14.00,2013-01-29 23:30:00,
2013-01-29 18:35:00,54.3,53.8,29.34,South,190,0.0,2.7,98,0.12,,,1.10,VWS V14.00,2013-01-29 23:35:00,
2013-01-29 18:41:00,54.5,54.0,29.34,SSE,158,3.6,3.6,98,0.16,,,1.14,VWS V14.00,2013-01-29 23:41:00,
2013-01-29 18:46:00,54.5,54.0,29.34,SSW,213,2.2,2.2,98,0.16,,,1.14,VWS V14.00,2013-01-29 23:46:00,
2013-01-29 18:51:00,54.5,54.0,29.34,SSE,151,0.0,0.0,98,0.16,,,1.14,VWS V14.00,2013-01-29 23:51:00,
2013-01-29 18:56:00,54.5,54.0,29.34,SW,214,2.2,3.6,98,0.16,,,1.14,VWS V14.00,2013-01-29 23:56:00,
2013-01-29 19:02:00,54.5,54.0,29.34,SSE,151,0.0,0.0,98,0.16,,,1.14,VWS V14.00,2013-01-30 00:02:00,
2013-01-29 19:07:00,54.5,54.0,29.34,South,181,4.0,4.0,98,0.16,,,1.14,VWS V14.00,2013-01-30 00:07:00,
2013-01-29 19:12:00,54.5,54.0,29.31,SSE,168,2.2,2.7,98,0.16,,,1.14,VWS V14.00,2013-01-30 00:12:00,
2013-01-29 19:17:00,54.5,54.0,29.31,SSE,149,4.0,4.0,98,0.16,,,1.14,VWS V14.00,2013-01-30 00:17:00,
2013-01-29 19:23:00,54.5,54.0,29.31,East,86,4.0,4.0,98,0.16,,,1.14,VWS V14.00,2013-01-30 00:23:00,
2013-01-29 19:28:00,54.7,54.1,29.31,SSE,152,2.7,4.9,98,0.04,,,1.14,VWS V14.00,2013-01-30 00:28:00,
2013-01-29 19:34:00,54.9,54.3,29.31,SSW,196,8.1,9.6,98,0.04,,,1.14,VWS V14.00,2013-01-30 00:34:00,
2013-01-29 19:39:00,54.9,54.3,29.31,South,180,5.8,5.8,98,0.00,,,1.14,VWS V14.00,2013-01-30 00:39:00,
2013-01-29 19:44:00,55.0,54.5,29.31,ESE,105,8.1,8.1,98,0.00,,,1.14,VWS V14.00,2013-01-30 00:44:00,
2013-01-29 19:50:00,55.2,54.7,29.31,SSW,195,5.8,5.8,98,0.00,,,1.14,VWS V14.00,2013-01-30 00:50:00,
2013-01-29 19:56:00,55.4,54.8,29.28,SSW,209,4.0,7.6,98,0.00,,,1.14,VWS V14.00,2013-01-30 00:56:00,
2013-01-29 20:02:00,55.4,54.8,29.28,SSW,206,5.8,5.8,98,0.00,,,1.14,VWS V14.00,2013-01-30 01:02:00,
2013-01-29 20:07:00,55.4,54.8,29.28,South,182,8.3,8.3,98,0.00,,,1.14,VWS V14.00,2013-01-30 01:07:00,
2013-01-29 20:13:00,55.6,55.0,29.28,South,184,5.8,5.8,98,0.00,,,1.14,VWS V14.00,2013-01-30 01:13:00,
2013-01-29 20:18:00,55.6,55.0,29.28,SW,224,8.3,8.3,98,0.00,,,1.14,VWS V14.00,2013-01-30 01:18:00,
2013-01-29 20:23:00,55.8,55.2,29.28,South,184,4.0,4.0,98,0.00,,,1.14,VWS V14.00,2013-01-30 01:23:00,
2013-01-29 20:29:00,55.8,55.2,29.28,SSW,200,5.4,5.4,98,0.00,,,1.14,VWS V14.00,2013-01-30 01:29:00,
2013-01-29 20:34:00,55.8,55.2,29.28,SSW,209,8.1,8.1,98,0.00,,,1.14,VWS V14.00,2013-01-30 01:34:00,
2013-01-29 20:40:00,55.8,55.2,29.25,ESE,113,5.4,5.4,98,0.00,,,1.14,VWS V14.00,2013-01-30 01:40:00,
2013-01-29 20:45:00,55.8,55.2,29.25,South,187,3.1,3.1,98,0.00,,,1.14,VWS V14.00,2013-01-30 01:45:00,
2013-01-29 20:51:00,55.8,55.2,29.25,SSW,197,5.4,5.4,98,0.00,,,1.14,VWS V14.00,2013-01-30 01:51:00,
2013-01-29 20:57:00,55.8,55.2,29.25,South,190,2.7,3.6,98,0.00,,,1.14,VWS V14.00,2013-01-30 01:57:00,
2013-01-29 21:02:00,55.8,55.2,29.25,South,191,4.9,4.9,98,0.00,,,1.14,VWS V14.00,2013-01-30 02:02:00,
2013-01-29 21:08:00,55.8,55.2,29.25,SSE,164,3.1,4.0,98,0.00,,,1.14,VWS V14.00,2013-01-30 02:08:00,
2013-01-29 21:13:00,55.8,55.2,29.25,SE,142,7.6,7.6,98,0.00,,,1.14,VWS V14.00,2013-01-30 02:13:00,
2013-01-29 21:19:00,55.8,55.2,29.22,SSW,200,5.4,5.4,98,0.04,,,1.18,VWS V14.00,2013-01-30 02:19:00,
2013-01-29 21:24:00,55.9,55.4,29.22,SSW,199,6.3,6.3,98,0.04,,,1.18,VWS V14.00,2013-01-30 02:24:00,
2013-01-29 21:30:00,55.9,55.4,29.22,SSW,195,8.7,8.7,98,0.08,,,1.22,VWS V14.00,2013-01-30 02:30:00,
2013-01-29 21:35:00,55.9,55.4,29.22,South,188,5.4,5.4,98,0.08,,,1.22,VWS V14.00,2013-01-30 02:35:00,
2013-01-29 21:40:00,55.9,55.4,29.22,SW,232,5.4,7.6,98,0.08,,,1.22,VWS V14.00,2013-01-30 02:40:00,
2013-01-29 21:45:00,55.9,55.4,29.22,SW,221,2.7,2.7,98,0.08,,,1.22,VWS V14.00,2013-01-30 02:45:00,
2013-01-29 21:50:00,55.8,55.2,29.22,SSW,203,3.6,3.6,98,0.08,,,1.22,VWS V14.00,2013-01-30 02:50:00,
2013-01-29 21:55:00,55.8,55.2,29.25,SSW,198,7.6,7.6,98,0.08,,,1.22,VWS V14.00,2013-01-30 02:55:00,
2013-01-29 22:01:00,55.6,55.0,29.25,SW,220,3.6,4.9,98,0.12,,,1.26,VWS V14.00,2013-01-30 03:01:00,
2013-01-29 22:07:00,55.6,55.0,29.25,SW,219,3.1,3.6,98,0.12,,,1.26,VWS V14.00,2013-01-30 03:07:00,
2013-01-29 22:12:00,55.4,54.8,29.22,SSW,198,3.1,3.1,98,0.16,,,1.30,VWS V14.00,2013-01-30 03:12:00,
2013-01-29 22:17:00,55.2,54.7,29.22,SSW,198,3.1,3.1,98,0.16,,,1.30,VWS V14.00,2013-01-30 03:17:00,
2013-01-29 22:22:00,55.2,54.7,29.22,SSE,168,5.8,5.8,98,0.12,,,1.30,VWS V14.00,2013-01-30 03:22:00,
2013-01-29 22:28:00,55.0,54.5,29.22,SSW,203,5.4,5.4,98,0.12,,,1.30,VWS V14.00,2013-01-30 03:28:00,
2013-01-29 22:33:00,55.0,54.5,29.22,SW,217,9.6,9.6,98,0.08,,,1.30,VWS V14.00,2013-01-30 03:33:00,
2013-01-29 22:39:00,54.9,54.3,29.22,SSW,211,7.2,7.2,98,0.08,,,1.30,VWS V14.00,2013-01-30 03:39:00,
2013-01-29 22:44:00,54.3,53.8,29.19,SSW,203,5.4,5.8,98,0.08,,,1.30,VWS V14.00,2013-01-30 03:44:00,
2013-01-29 22:50:00,54.0,53.4,29.19,SSW,213,5.8,5.8,98,0.08,,,1.30,VWS V14.00,2013-01-30 03:50:00,
2013-01-29 22:55:00,54.0,53.4,29.19,SSW,213,5.8,5.8,98,0.08,,,1.30,VWS V14.00,2013-01-30 03:55:00,
2013-01-29 23:00:00,52.7,52.2,29.19,SW,236,3.1,4.0,98,0.08,,,1.30,VWS V14.00,2013-01-30 04:00:00,
2013-01-29 23:05:00,52.7,52.2,29.19,SW,230,3.1,3.1,98,0.04,,,1.30,VWS V14.00,2013-01-30 04:05:00,
2013-01-29 23:11:00,52.3,51.8,29.19,SSW,211,5.8,5.8,98,0.00,,,1.30,VWS V14.00,2013-01-30 04:11:00,
2013-01-29 23:17:00,51.8,51.3,29.19,SSW,207,0.0,2.7,98,0.00,,,1.30,VWS V14.00,2013-01-30 04:17:00,
2013-01-29 23:22:00,51.6,51.1,29.19,SSW,207,2.7,2.7,98,0.00,,,1.30,VWS V14.00,2013-01-30 04:22:00,
2013-01-29 23:28:00,51.4,50.9,29.19,SSW,207,2.2,4.0,98,0.00,,,1.30,VWS V14.00,2013-01-30 04:28:00,
2013-01-29 23:33:00,51.4,50.9,29.19,SSW,207,2.7,2.7,98,0.00,,,1.30,VWS V14.00,2013-01-30 04:33:00,
2013-01-29 23:39:00,51.1,50.5,29.19,NNW,335,0.0,0.0,98,0.00,,,1.30,VWS V14.00,2013-01-30 04:39:00,
2013-01-29 23:44:00,51.1,50.5,29.19,SW,223,4.9,4.9,98,0.00,,,1.30,VWS V14.00,2013-01-30 04:44:00,
2013-01-29 23:49:00,50.7,50.2,29.19,North,0,3.6,3.6,98,0.00,,,1.30,VWS V14.00,2013-01-30 04:49:00,
2013-01-29 23:54:00,50.7,50.2,29.19,NNW,341,2.7,3.1,98,0.00,,,1.30,VWS V14.00,2013-01-30 04:54:00,